createdAt,value
2016-09-25T00:00:51.223Z,1014.13
2016-09-25T00:01:51.207Z,1014.18
2016-09-25T00:02:51.191Z,1014.19
2016-09-25T00:03:51.175Z,1014.18
2016-09-25T00:04:51.160Z,1014.22
2016-09-25T00:05:51.141Z,1014.16
2016-09-25T00:06:51.126Z,1014.15
2016-09-25T00:07:51.109Z,1014.13
2016-09-25T00:08:51.092Z,1014.1
2016-09-25T00:09:51.077Z,1014.12
2016-09-25T00:10:51.062Z,1014.12
2016-09-25T00:11:51.049Z,1014.15
2016-09-25T00:12:51.030Z,1014.14
2016-09-25T00:13:51.013Z,1014.15
2016-09-25T00:14:50.998Z,1014.12
2016-09-25T00:15:50.979Z,1014.1
2016-09-25T00:16:50.960Z,1014.1
2016-09-25T00:17:50.948Z,1014.1
2016-09-25T00:18:50.931Z,1014.09
2016-09-25T00:19:50.912Z,1014.1
2016-09-25T00:20:50.900Z,1014.09
2016-09-25T00:21:50.881Z,1014.11
2016-09-25T00:22:50.870Z,1014.07
2016-09-25T00:23:50.848Z,1014.11
2016-09-25T00:24:50.833Z,1014.09
2016-09-25T00:25:50.816Z,1014.1
2016-09-25T00:26:50.801Z,1014.07
2016-09-25T00:27:50.783Z,1014.11
2016-09-25T00:28:50.764Z,1014.12
2016-09-25T00:29:50.748Z,1014.1
2016-09-25T00:30:50.734Z,1014.09
2016-09-25T00:31:50.720Z,1014.1
2016-09-25T00:32:50.702Z,1014.11
2016-09-25T00:33:50.682Z,1014.09
2016-09-25T00:34:50.668Z,1014.08
2016-09-25T00:35:50.649Z,1014.06
2016-09-25T00:36:50.641Z,1014.09
2016-09-25T00:37:50.620Z,1014.05
2016-09-25T00:38:50.602Z,1014.09
2016-09-25T00:39:50.588Z,1014.09
2016-09-25T00:40:50.570Z,1014.06
2016-09-25T00:41:50.553Z,1014.02
2016-09-25T00:42:50.540Z,1014.02
2016-09-25T00:43:50.520Z,1014.02
2016-09-25T00:44:51.053Z,1014.06
2016-09-25T00:45:50.485Z,1014.03
2016-09-25T00:46:50.472Z,1014.04
2016-09-25T00:47:50.454Z,1014.04
2016-09-25T00:48:50.439Z,1014.01
2016-09-25T00:49:50.423Z,1014.01
2016-09-25T00:50:50.403Z,1014.02
2016-09-25T00:51:50.386Z,1014.04
2016-09-25T00:52:50.371Z,1014.06
2016-09-25T00:53:50.354Z,1014.01
2016-09-25T00:54:50.339Z,1014.03
2016-09-25T00:55:50.323Z,1014.04
2016-09-25T00:56:50.308Z,1014.04
2016-09-25T00:57:50.288Z,1014.07
2016-09-25T00:58:50.275Z,1014.01
2016-09-25T00:59:50.259Z,1014.02
2016-09-25T01:00:50.241Z,1014.05
2016-09-25T01:01:50.225Z,1013.98
2016-09-25T01:02:50.207Z,1013.96
2016-09-25T01:03:50.188Z,1013.99
2016-09-25T01:04:50.178Z,1013.94
2016-09-25T01:05:50.157Z,1013.92
2016-09-25T01:06:50.143Z,1013.92
2016-09-25T01:07:50.127Z,1013.9
2016-09-25T01:08:50.111Z,1013.86
2016-09-25T01:09:50.093Z,1013.89
2016-09-25T01:10:50.075Z,1013.87
2016-09-25T01:11:50.057Z,1013.84
2016-09-25T01:12:50.044Z,1013.81
2016-09-25T01:13:50.025Z,1013.8
2016-09-25T01:14:50.010Z,1013.83
2016-09-25T01:15:49.996Z,1013.79
2016-09-25T01:16:49.981Z,1013.76
2016-09-25T01:17:49.961Z,1013.77
2016-09-25T01:18:49.943Z,1013.74
2016-09-25T01:19:49.928Z,1013.74
2016-09-25T01:20:49.910Z,1013.74
2016-09-25T01:21:49.896Z,1013.7
2016-09-25T01:22:49.878Z,1013.7
2016-09-25T01:23:49.861Z,1013.66
2016-09-25T01:24:49.845Z,1013.68
2016-09-25T01:25:49.830Z,1013.63
2016-09-25T01:26:49.817Z,1013.63
2016-09-25T01:27:49.794Z,1013.64
2016-09-25T01:28:49.780Z,1013.65
2016-09-25T01:29:49.763Z,1013.62
2016-09-25T01:30:49.746Z,1013.6
2016-09-25T01:31:49.733Z,1013.61
2016-09-25T01:32:49.715Z,1013.59
2016-09-25T01:33:49.701Z,1013.57
2016-09-25T01:34:49.681Z,1013.56
2016-09-25T01:35:49.664Z,1013.54
2016-09-25T01:36:49.654Z,1013.55
2016-09-25T01:37:49.636Z,1013.58
2016-09-25T01:38:49.614Z,1013.53
2016-09-25T01:39:49.599Z,1013.52
2016-09-25T01:40:49.581Z,1013.52
2016-09-25T01:41:49.567Z,1013.54
2016-09-25T01:42:49.549Z,1013.49
2016-09-25T01:43:49.536Z,1013.51
2016-09-25T01:44:49.516Z,1013.46
2016-09-25T01:45:49.501Z,1013.49
2016-09-25T01:46:49.485Z,1013.48
2016-09-25T01:47:49.469Z,1013.43
2016-09-25T01:48:49.452Z,1013.45
2016-09-25T01:49:49.436Z,1013.44
2016-09-25T01:50:49.419Z,1013.44
2016-09-25T01:51:49.402Z,1013.41
2016-09-25T01:52:49.386Z,1013.53
2016-09-25T01:53:49.370Z,1013.44
2016-09-25T01:54:49.354Z,1013.44
2016-09-25T01:55:49.342Z,1013.43
2016-09-25T01:56:49.322Z,1013.41
2016-09-25T01:57:49.304Z,1013.41
2016-09-25T01:58:49.289Z,1013.43
2016-09-25T01:59:49.274Z,1013.36
2016-09-25T02:00:49.255Z,1013.37
2016-09-25T02:01:49.239Z,1013.37
2016-09-25T02:02:49.224Z,1013.43
2016-09-25T02:03:49.208Z,1013.34
2016-09-25T02:04:49.192Z,1013.36
2016-09-25T02:05:49.175Z,1013.32
2016-09-25T02:06:49.162Z,1013.33
2016-09-25T02:07:49.147Z,1013.31
2016-09-25T02:08:49.125Z,1013.29
2016-09-25T02:09:49.108Z,1013.28
2016-09-25T02:10:49.094Z,1013.33
2016-09-25T02:11:49.082Z,1013.26
2016-09-25T02:12:49.060Z,1013.27
2016-09-25T02:13:49.043Z,1013.28
2016-09-25T02:14:49.028Z,1013.28
2016-09-25T02:15:49.015Z,1013.26
2016-09-25T02:16:48.997Z,1013.26
2016-09-25T02:17:48.980Z,1013.21
2016-09-25T02:18:48.961Z,1013.26
2016-09-25T02:19:48.948Z,1013.19
2016-09-25T02:20:48.930Z,1013.2
2016-09-25T02:21:48.915Z,1013.22
2016-09-25T02:22:48.903Z,1013.19
2016-09-25T02:23:48.883Z,1013.17
2016-09-25T02:24:48.862Z,1013.22
2016-09-25T02:25:48.846Z,1013.18
2016-09-25T02:26:48.832Z,1013.18
2016-09-25T02:27:48.818Z,1013.17
2016-09-25T02:28:48.798Z,1013.12
2016-09-25T02:29:48.783Z,1013.14
2016-09-25T02:30:48.766Z,1013.14
2016-09-25T02:31:48.753Z,1013.1
2016-09-25T02:32:48.737Z,1013.1
2016-09-25T02:33:48.720Z,1013.11
2016-09-25T02:34:48.700Z,1013.11
2016-09-25T02:35:48.685Z,1013.07
2016-09-25T02:36:48.666Z,1013.07
2016-09-25T02:37:48.651Z,1013.03
2016-09-25T02:38:48.636Z,1013.02
2016-09-25T02:39:48.619Z,1013.01
2016-09-25T02:40:48.603Z,1013.02
2016-09-25T02:41:48.587Z,1013.07
2016-09-25T02:42:48.574Z,1013
2016-09-25T02:43:48.555Z,1013.04
2016-09-25T02:44:48.539Z,1013.01
2016-09-25T02:45:48.521Z,1013.02
2016-09-25T02:46:48.504Z,1013
2016-09-25T02:47:48.489Z,1012.99
2016-09-25T02:48:48.472Z,1013.02
2016-09-25T02:49:48.459Z,1012.94
2016-09-25T02:50:48.438Z,1013.02
2016-09-25T02:51:48.428Z,1012.96
2016-09-25T02:52:48.409Z,1012.98
2016-09-25T02:53:48.390Z,1012.99
2016-09-25T02:54:48.376Z,1012.98
2016-09-25T02:55:48.359Z,1012.96
2016-09-25T02:56:48.342Z,1012.95
2016-09-25T02:57:48.325Z,1012.96
2016-09-25T02:58:48.310Z,1012.95
2016-09-25T02:59:48.292Z,1012.93
2016-09-25T03:00:48.278Z,1012.96
2016-09-25T03:01:48.261Z,1012.93
2016-09-25T03:02:48.247Z,1012.94
2016-09-25T03:03:48.231Z,1012.94
2016-09-25T03:04:48.210Z,1012.91
2016-09-25T03:05:48.196Z,1012.95
2016-09-25T03:06:48.184Z,1012.89
2016-09-25T03:07:48.163Z,1012.93
2016-09-25T03:08:48.147Z,1012.9
2016-09-25T03:09:48.132Z,1012.87
2016-09-25T03:10:48.114Z,1012.85
2016-09-25T03:11:48.098Z,1012.8
2016-09-25T03:12:48.081Z,1012.87
2016-09-25T03:13:48.066Z,1012.83
2016-09-25T03:14:48.056Z,1012.83
2016-09-25T03:15:48.034Z,1012.85
2016-09-25T03:16:48.015Z,1012.82
2016-09-25T03:17:48.005Z,1012.79
2016-09-25T03:18:47.986Z,1012.8
2016-09-25T03:19:47.970Z,1012.79
2016-09-25T03:20:47.949Z,1012.78
2016-09-25T03:21:47.937Z,1012.75
2016-09-25T03:22:47.920Z,1012.78
2016-09-25T03:23:47.904Z,1012.76
2016-09-25T03:24:47.888Z,1012.75
2016-09-25T03:25:47.877Z,1012.73
2016-09-25T03:26:47.859Z,1012.72
2016-09-25T03:27:47.838Z,1012.74
2016-09-25T03:28:47.823Z,1012.69
2016-09-25T03:29:47.808Z,1012.68
2016-09-25T03:30:47.790Z,1012.69
2016-09-25T03:31:47.775Z,1012.67
2016-09-25T03:32:47.758Z,1012.7
2016-09-25T03:33:47.740Z,1012.7
2016-09-25T03:34:47.728Z,1012.74
2016-09-25T03:35:47.711Z,1012.72
2016-09-25T03:36:47.693Z,1012.68
2016-09-25T03:37:47.680Z,1012.72
2016-09-25T03:38:47.660Z,1012.7
2016-09-25T03:39:47.645Z,1012.68
2016-09-25T03:40:47.626Z,1012.67
2016-09-25T03:41:47.611Z,1012.67
2016-09-25T03:42:47.600Z,1012.69
2016-09-25T03:43:47.580Z,1012.71
2016-09-25T03:44:47.567Z,1012.62
2016-09-25T03:45:47.548Z,1012.64
2016-09-25T03:46:47.531Z,1012.61
2016-09-25T03:47:47.515Z,1012.61
2016-09-25T03:48:47.495Z,1012.63
2016-09-25T03:49:47.480Z,1012.58
2016-09-25T03:50:47.466Z,1012.58
2016-09-25T03:51:47.449Z,1012.57
2016-09-25T03:52:47.431Z,1012.56
2016-09-25T03:53:47.418Z,1012.59
2016-09-25T03:54:47.406Z,1012.57
2016-09-25T03:55:47.381Z,1012.56
2016-09-25T03:56:47.366Z,1012.56
2016-09-25T03:57:47.350Z,1012.61
2016-09-25T03:58:47.334Z,1012.55
2016-09-25T03:59:47.318Z,1012.55
2016-09-25T04:00:47.303Z,1012.57
2016-09-25T04:01:47.286Z,1012.58
2016-09-25T04:02:47.268Z,1012.53
2016-09-25T04:03:47.253Z,1012.56
2016-09-25T04:04:47.241Z,1012.54
2016-09-25T04:05:47.222Z,1012.55
2016-09-25T04:06:47.202Z,1012.53
2016-09-25T04:07:47.187Z,1012.53
2016-09-25T04:08:47.171Z,1012.55
2016-09-25T04:09:47.153Z,1012.56
2016-09-25T04:10:47.140Z,1012.56
2016-09-25T04:11:47.121Z,1012.56
2016-09-25T04:12:47.110Z,1012.58
2016-09-25T04:13:47.088Z,1012.58
2016-09-25T04:14:47.073Z,1012.57
2016-09-25T04:15:47.068Z,1012.57
2016-09-25T04:16:47.041Z,1012.58
2016-09-25T04:17:47.024Z,1012.56
2016-09-25T04:18:47.006Z,1012.55
2016-09-25T04:19:46.991Z,1012.56
2016-09-25T04:20:46.978Z,1012.53
2016-09-25T04:21:46.966Z,1012.56
2016-09-25T04:22:46.947Z,1012.52
2016-09-25T04:23:46.926Z,1012.54
2016-09-25T04:24:46.911Z,1012.54
2016-09-25T04:25:46.903Z,1012.54
2016-09-25T04:26:46.878Z,1012.5
2016-09-25T04:27:46.868Z,1012.49
2016-09-25T04:28:46.844Z,1012.5
2016-09-25T04:29:46.829Z,1012.48
2016-09-25T04:30:46.817Z,1012.46
2016-09-25T04:31:46.797Z,1012.48
2016-09-25T04:32:46.780Z,1012.45
2016-09-25T04:33:46.765Z,1012.45
2016-09-25T04:34:46.748Z,1012.48
2016-09-25T04:35:46.733Z,1012.47
2016-09-25T04:36:46.718Z,1012.44
2016-09-25T04:37:46.698Z,1012.45
2016-09-25T04:38:46.685Z,1012.41
2016-09-25T04:39:46.665Z,1012.41
2016-09-25T04:40:46.652Z,1012.38
2016-09-25T04:41:46.635Z,1012.36
2016-09-25T04:42:46.620Z,1012.36
2016-09-25T04:43:46.601Z,1012.44
2016-09-25T04:44:46.583Z,1012.35
2016-09-25T04:45:46.568Z,1012.37
2016-09-25T04:46:46.559Z,1012.42
2016-09-25T04:47:46.540Z,1012.42
2016-09-25T04:48:46.522Z,1012.36
2016-09-25T04:49:46.506Z,1012.42
2016-09-25T04:50:46.489Z,1012.39
2016-09-25T04:51:46.474Z,1012.33
2016-09-25T04:52:46.457Z,1012.31
2016-09-25T04:53:46.442Z,1012.38
2016-09-25T04:54:46.424Z,1012.34
2016-09-25T04:55:46.411Z,1012.34
2016-09-25T04:56:46.394Z,1012.32
2016-09-25T04:57:46.374Z,1012.34
2016-09-25T04:58:46.361Z,1012.33
2016-09-25T04:59:46.341Z,1012.28
2016-09-25T05:00:46.330Z,1012.26
2016-09-25T05:01:46.312Z,1012.28
2016-09-25T05:02:46.291Z,1012.28
2016-09-25T05:03:46.278Z,1012.27
2016-09-25T05:04:46.263Z,1012.25
2016-09-25T05:05:46.248Z,1012.26
2016-09-25T05:06:46.228Z,1012.27
2016-09-25T05:07:46.214Z,1012.29
2016-09-25T05:08:46.197Z,1012.25
2016-09-25T05:09:46.182Z,1012.25
2016-09-25T05:10:46.167Z,1012.26
2016-09-25T05:11:46.152Z,1012.27
2016-09-25T05:12:46.134Z,1012.27
2016-09-25T05:13:46.115Z,1012.29
2016-09-25T05:14:46.101Z,1012.25
2016-09-25T05:15:46.087Z,1012.28
2016-09-25T05:16:46.070Z,1012.32
2016-09-25T05:17:46.053Z,1012.27
2016-09-25T05:18:46.036Z,1012.27
2016-09-25T05:19:46.016Z,1012.23
2016-09-25T05:20:46.003Z,1012.24
2016-09-25T05:21:45.987Z,1012.22
2016-09-25T05:22:45.972Z,1012.28
2016-09-25T05:23:45.953Z,1012.19
2016-09-25T05:24:45.939Z,1012.21
2016-09-25T05:25:45.925Z,1012.27
2016-09-25T05:26:45.912Z,1012.21
2016-09-25T05:27:45.890Z,1012.18
2016-09-25T05:28:45.873Z,1012.19
2016-09-25T05:29:45.856Z,1012.19
2016-09-25T05:30:45.847Z,1012.17
2016-09-25T05:31:45.828Z,1012.22
2016-09-25T05:32:45.810Z,1012.22
2016-09-25T05:33:45.792Z,1012.21
2016-09-25T05:34:45.773Z,1012.18
2016-09-25T05:35:45.763Z,1012.23
2016-09-25T05:36:45.744Z,1012.19
2016-09-25T05:37:45.734Z,1012.21
2016-09-25T05:38:45.709Z,1012.23
2016-09-25T05:39:45.695Z,1012.21
2016-09-25T05:40:45.679Z,1012.19
2016-09-25T05:41:45.662Z,1012.16
2016-09-25T05:42:45.645Z,1012.2
2016-09-25T05:43:45.631Z,1012.18
2016-09-25T05:44:45.614Z,1012.21
2016-09-25T05:45:45.598Z,1012.14
2016-09-25T05:46:45.584Z,1012.17
2016-09-25T05:47:45.564Z,1012.17
2016-09-25T05:48:45.548Z,1012.14
2016-09-25T05:49:45.532Z,1012.13
2016-09-25T05:50:45.517Z,1012.08
2016-09-25T05:51:45.501Z,1012.09
2016-09-25T05:52:45.485Z,1012.11
2016-09-25T05:53:45.465Z,1012.13
2016-09-25T05:54:45.451Z,1012.08
2016-09-25T05:55:45.434Z,1012.07
2016-09-25T05:56:45.418Z,1012.1
2016-09-25T05:57:45.404Z,1012.06
2016-09-25T05:58:45.386Z,1012.11
2016-09-25T05:59:45.372Z,1012.11
2016-09-25T06:00:45.352Z,1012.1
2016-09-25T06:01:45.338Z,1012.1
2016-09-25T06:02:45.323Z,1012.08
2016-09-25T06:03:45.307Z,1012.06
2016-09-25T06:04:45.288Z,1012.11
2016-09-25T06:05:45.273Z,1012.05
2016-09-25T06:06:45.261Z,1012.11
2016-09-25T06:07:45.238Z,1012.08
2016-09-25T06:08:45.222Z,1012.12
2016-09-25T06:09:45.208Z,1012.11
2016-09-25T06:10:45.195Z,1012.12
2016-09-25T06:11:45.175Z,1012.08
2016-09-25T06:12:45.161Z,1012.08
2016-09-25T06:13:45.143Z,1012.08
2016-09-25T06:14:45.126Z,1012.08
2016-09-25T06:15:45.109Z,1012.09
2016-09-25T06:16:45.093Z,1012.08
2016-09-25T06:17:45.077Z,1012.06
2016-09-25T06:18:45.061Z,1012.1
2016-09-25T06:19:45.042Z,1012.12
2016-09-25T06:20:45.029Z,1012.06
2016-09-25T06:21:45.017Z,1012.06
2016-09-25T06:22:44.996Z,1012.04
2016-09-25T06:23:44.977Z,1012.06
2016-09-25T06:24:44.980Z,1012.05
2016-09-25T06:25:44.949Z,1012.08
2016-09-25T06:26:44.932Z,1012.07
2016-09-25T06:27:44.913Z,1012.05
2016-09-25T06:28:44.897Z,1012.05
2016-09-25T06:29:44.882Z,1012.03
2016-09-25T06:30:44.864Z,1012.05
2016-09-25T06:31:44.849Z,1012.07
2016-09-25T06:32:44.838Z,1012.08
2016-09-25T06:33:44.815Z,1012.09
2016-09-25T06:34:44.800Z,1012.04
2016-09-25T06:35:44.785Z,1012.09
2016-09-25T06:36:44.765Z,1012.08
2016-09-25T06:37:44.752Z,1012.08
2016-09-25T06:38:44.740Z,1012.07
2016-09-25T06:39:44.718Z,1012.06
2016-09-25T06:40:44.703Z,1012.03
2016-09-25T06:41:44.692Z,1012.03
2016-09-25T06:42:44.670Z,1012.09
2016-09-25T06:43:44.653Z,1012.09
2016-09-25T06:44:44.635Z,1012.07
2016-09-25T06:45:44.623Z,1012.05
2016-09-25T06:46:44.607Z,1012.08
2016-09-25T06:47:44.592Z,1012.06
2016-09-25T06:48:44.572Z,1012.04
2016-09-25T06:49:44.555Z,1012.02
2016-09-25T06:50:44.541Z,1012.03
2016-09-25T06:51:44.528Z,1012.06
2016-09-25T06:52:44.507Z,1012.04
2016-09-25T06:53:44.507Z,1012.03
2016-09-25T06:54:44.475Z,1012.01
2016-09-25T06:55:44.459Z,1012.03
2016-09-25T06:56:44.443Z,1012.04
2016-09-25T06:57:44.427Z,1012.05
2016-09-25T06:58:44.411Z,1012.04
2016-09-25T06:59:44.394Z,1012.02
2016-09-25T07:00:44.380Z,1012.05
2016-09-25T07:01:44.362Z,1012.02
2016-09-25T07:02:44.345Z,1012.01
2016-09-25T07:03:44.338Z,1011.97
2016-09-25T07:04:44.314Z,1012.03
2016-09-25T07:05:44.299Z,1012.01
2016-09-25T07:06:44.282Z,1011.97
2016-09-25T07:07:44.270Z,1012
2016-09-25T07:08:44.249Z,1012.05
2016-09-25T07:09:44.230Z,1012.05
2016-09-25T07:10:44.215Z,1012.02
2016-09-25T07:11:44.198Z,1012.03
2016-09-25T07:12:44.185Z,1012.02
2016-09-25T07:13:44.171Z,1012.03
2016-09-25T07:14:44.148Z,1012.06
2016-09-25T07:15:44.133Z,1012.03
2016-09-25T07:16:44.115Z,1012.01
2016-09-25T07:17:44.101Z,1012.03
2016-09-25T07:18:44.245Z,1012.02
2016-09-25T07:19:44.075Z,1012.06
2016-09-25T07:20:44.053Z,1012.01
2016-09-25T07:21:44.034Z,1011.97
2016-09-25T07:22:44.020Z,1011.93
2016-09-25T07:23:44.006Z,1011.96
2016-09-25T07:24:43.988Z,1011.96
2016-09-25T07:25:43.975Z,1011.97
2016-09-25T07:26:43.956Z,1011.97
2016-09-25T07:27:43.936Z,1011.96
2016-09-25T07:28:43.922Z,1011.99
2016-09-25T07:29:43.917Z,1011.92
2016-09-25T07:30:43.890Z,1011.91
2016-09-25T07:31:43.874Z,1011.94
2016-09-25T07:32:43.859Z,1011.91
2016-09-25T07:33:43.841Z,1011.91
2016-09-25T07:34:43.827Z,1011.91
2016-09-25T07:35:43.808Z,1011.89
2016-09-25T07:36:43.791Z,1011.91
2016-09-25T07:37:43.777Z,1011.92
2016-09-25T07:38:43.762Z,1011.94
2016-09-25T07:39:43.745Z,1011.93
2016-09-25T07:40:43.727Z,1011.95
2016-09-25T07:41:43.710Z,1011.92
2016-09-25T07:42:43.693Z,1011.89
2016-09-25T07:43:43.680Z,1011.85
2016-09-25T07:44:43.661Z,1011.86
2016-09-25T07:45:43.648Z,1011.85
2016-09-25T07:46:43.633Z,1011.85
2016-09-25T07:47:43.614Z,1011.85
2016-09-25T07:48:43.604Z,1011.86
2016-09-25T07:49:43.581Z,1011.86
2016-09-25T07:50:43.563Z,1011.81
2016-09-25T07:51:43.547Z,1011.8
2016-09-25T07:52:43.533Z,1011.77
2016-09-25T07:53:43.516Z,1011.79
2016-09-25T07:54:43.500Z,1011.8
2016-09-25T07:55:43.483Z,1011.79
2016-09-25T07:56:43.469Z,1011.82
2016-09-25T07:57:43.450Z,1011.76
2016-09-25T07:58:43.434Z,1011.76
2016-09-25T07:59:43.418Z,1011.78
2016-09-25T08:00:43.409Z,1011.8
2016-09-25T08:01:43.388Z,1011.79
2016-09-25T08:02:43.371Z,1011.79
2016-09-25T08:03:43.355Z,1011.8
2016-09-25T08:04:43.335Z,1011.79
2016-09-25T08:05:43.319Z,1011.77
2016-09-25T08:06:43.305Z,1011.77
2016-09-25T08:07:43.286Z,1011.77
2016-09-25T08:08:43.277Z,1011.75
2016-09-25T08:09:43.257Z,1011.75
2016-09-25T08:10:43.237Z,1011.75
2016-09-25T08:11:43.223Z,1011.68
2016-09-25T08:12:43.206Z,1011.69
2016-09-25T08:13:43.190Z,1011.75
2016-09-25T08:14:43.174Z,1011.71
2016-09-25T08:15:43.156Z,1011.71
2016-09-25T08:16:43.142Z,1011.71
2016-09-25T08:17:43.126Z,1011.65
2016-09-25T08:18:43.108Z,1011.71
2016-09-25T08:19:43.099Z,1011.69
2016-09-25T08:20:43.079Z,1011.66
2016-09-25T08:21:43.059Z,1011.64
2016-09-25T08:22:43.044Z,1011.63
2016-09-25T08:23:43.034Z,1011.66
2016-09-25T08:24:43.010Z,1011.62
2016-09-25T08:25:42.995Z,1011.61
2016-09-25T08:26:42.977Z,1011.64
2016-09-25T08:27:42.962Z,1011.66
2016-09-25T08:28:42.946Z,1011.61
2016-09-25T08:29:42.928Z,1011.59
2016-09-25T08:30:42.919Z,1011.6
2016-09-25T08:31:42.907Z,1011.57
2016-09-25T08:32:42.881Z,1011.58
2016-09-25T08:33:42.866Z,1011.57
2016-09-25T08:34:42.848Z,1011.56
2016-09-25T08:35:42.835Z,1011.55
2016-09-25T08:36:42.816Z,1011.57
2016-09-25T08:37:42.798Z,1011.53
2016-09-25T08:38:42.785Z,1011.52
2016-09-25T08:39:42.768Z,1011.52
2016-09-25T08:40:42.753Z,1011.5
2016-09-25T08:41:42.732Z,1011.48
2016-09-25T08:42:42.717Z,1011.45
2016-09-25T08:43:42.699Z,1011.47
2016-09-25T08:44:42.687Z,1011.45
2016-09-25T08:45:42.670Z,1011.47
2016-09-25T08:46:42.651Z,1011.46
2016-09-25T08:47:42.634Z,1011.48
2016-09-25T08:48:42.617Z,1011.48
2016-09-25T08:49:42.599Z,1011.45
2016-09-25T08:50:42.586Z,1011.43
2016-09-25T08:51:42.572Z,1011.4
2016-09-25T08:52:42.553Z,1011.43
2016-09-25T08:53:42.535Z,1011.4
2016-09-25T08:54:42.520Z,1011.37
2016-09-25T08:55:42.509Z,1011.41
2016-09-25T08:56:42.486Z,1011.35
2016-09-25T08:57:42.478Z,1011.33
2016-09-25T08:58:42.455Z,1011.37
2016-09-25T08:59:42.441Z,1011.33
2016-09-25T09:00:42.422Z,1011.31
2016-09-25T09:01:42.405Z,1011.32
2016-09-25T09:02:42.390Z,1011.29
2016-09-25T09:03:42.372Z,1011.33
2016-09-25T09:04:42.358Z,1011.31
2016-09-25T09:05:42.338Z,1011.26
2016-09-25T09:06:42.324Z,1011.25
2016-09-25T09:07:42.320Z,1011.24
2016-09-25T09:08:42.305Z,1011.29
2016-09-25T09:09:42.276Z,1011.27
2016-09-25T09:10:42.257Z,1011.28
2016-09-25T09:11:42.242Z,1011.22
2016-09-25T09:12:42.223Z,1011.21
2016-09-25T09:13:42.208Z,1011.25
2016-09-25T09:14:42.202Z,1011.2
2016-09-25T09:15:42.179Z,1011.21
2016-09-25T09:16:42.164Z,1011.26
2016-09-25T09:17:42.144Z,1011.24
2016-09-25T09:18:42.130Z,1011.23
2016-09-25T09:19:42.112Z,1011.24
2016-09-25T09:20:42.093Z,1011.25
2016-09-25T09:21:42.075Z,1011.19
2016-09-25T09:22:42.060Z,1011.21
2016-09-25T09:23:42.045Z,1011.17
2016-09-25T09:24:42.029Z,1011.15
2016-09-25T09:25:42.012Z,1011.16
2016-09-25T09:26:42.002Z,1011.13
2016-09-25T09:27:41.983Z,1011.13
2016-09-25T09:28:41.967Z,1011.13
2016-09-25T09:29:41.944Z,1011.2
2016-09-25T09:30:41.931Z,1011.14
2016-09-25T09:31:41.915Z,1011.14
2016-09-25T09:32:41.895Z,1011.15
2016-09-25T09:33:41.878Z,1011.17
2016-09-25T09:34:41.863Z,1011.16
2016-09-25T09:35:41.845Z,1011.14
2016-09-25T09:36:41.829Z,1011.19
2016-09-25T09:37:41.810Z,1011.17
2016-09-25T09:38:41.796Z,1011.14
2016-09-25T09:39:41.777Z,1011.16
2016-09-25T09:40:41.764Z,1011.09
2016-09-25T09:41:41.747Z,1011.08
2016-09-25T09:42:41.731Z,1011.08
2016-09-25T09:43:41.714Z,1011.08
2016-09-25T09:44:41.697Z,1011.05
2016-09-25T09:45:41.688Z,1011.09
2016-09-25T09:46:41.666Z,1011.06
2016-09-25T09:47:41.648Z,1011.07
2016-09-25T09:48:41.632Z,1011.04
2016-09-25T09:49:41.615Z,1011.02
2016-09-25T09:50:41.600Z,1010.97
2016-09-25T09:51:41.581Z,1011
2016-09-25T09:52:41.567Z,1011.05
2016-09-25T09:53:41.552Z,1011.01
2016-09-25T09:54:41.532Z,1010.98
2016-09-25T09:55:41.517Z,1011.04
2016-09-25T09:56:41.510Z,1010.99
2016-09-25T09:57:41.497Z,1010.98
2016-09-25T09:58:41.468Z,1010.94
2016-09-25T09:59:41.451Z,1010.98
2016-09-25T10:00:41.438Z,1010.96
2016-09-25T10:01:41.423Z,1010.96
2016-09-25T10:02:41.408Z,1010.96
2016-09-25T10:03:41.385Z,1010.98
2016-09-25T10:04:41.371Z,1010.96
2016-09-25T10:05:41.353Z,1010.95
2016-09-25T10:06:41.339Z,1010.93
2016-09-25T10:07:41.323Z,1010.9
2016-09-25T10:08:41.305Z,1010.98
2016-09-25T10:09:41.303Z,1010.98
2016-09-25T10:10:41.273Z,1010.93
2016-09-25T10:11:41.256Z,1010.93
2016-09-25T10:12:41.245Z,1010.92
2016-09-25T10:13:41.228Z,1010.93
2016-09-25T10:14:41.208Z,1010.92
2016-09-25T10:15:41.190Z,1010.84
2016-09-25T10:16:41.174Z,1010.9
2016-09-25T10:17:41.158Z,1010.89
2016-09-25T10:18:41.145Z,1010.85
2016-09-25T10:19:41.125Z,1010.85
2016-09-25T10:20:41.110Z,1010.84
2016-09-25T10:21:41.102Z,1010.88
2016-09-25T10:22:41.076Z,1010.82
2016-09-25T10:23:41.064Z,1010.79
2016-09-25T10:24:41.045Z,1010.8
2016-09-25T10:25:41.029Z,1010.79
2016-09-25T10:26:41.014Z,1010.78
2016-09-25T10:27:40.998Z,1010.77
2016-09-25T10:28:40.984Z,1010.75
2016-09-25T10:29:40.964Z,1010.74
2016-09-25T10:30:40.949Z,1010.79
2016-09-25T10:31:40.932Z,1010.73
2016-09-25T10:32:40.915Z,1010.78
2016-09-25T10:33:40.898Z,1010.76
2016-09-25T10:34:40.883Z,1010.78
2016-09-25T10:35:40.865Z,1010.8
2016-09-25T10:36:40.848Z,1010.74
2016-09-25T10:37:40.831Z,1010.77
2016-09-25T10:38:40.815Z,1010.74
2016-09-25T10:39:40.798Z,1010.72
2016-09-25T10:40:40.783Z,1010.66
2016-09-25T10:41:40.765Z,1010.73
2016-09-25T10:42:40.749Z,1010.66
2016-09-25T10:43:40.736Z,1010.64
2016-09-25T10:44:40.721Z,1010.6
2016-09-25T10:45:40.707Z,1010.63
2016-09-25T10:46:40.683Z,1010.6
2016-09-25T10:47:40.673Z,1010.64
2016-09-25T10:48:40.661Z,1010.63
2016-09-25T10:49:40.636Z,1010.61
2016-09-25T10:50:40.621Z,1010.62
2016-09-25T10:51:40.609Z,1010.62
2016-09-25T10:52:40.589Z,1010.63
2016-09-25T10:53:40.571Z,1010.6
2016-09-25T10:54:40.556Z,1010.62
2016-09-25T10:55:40.542Z,1010.6
2016-09-25T10:56:40.524Z,1010.55
2016-09-25T10:57:40.512Z,1010.57
2016-09-25T10:58:40.489Z,1010.58
2016-09-25T10:59:40.475Z,1010.56
2016-09-25T11:00:40.456Z,1010.57
2016-09-25T11:01:40.443Z,1010.55
2016-09-25T11:02:40.428Z,1010.51
2016-09-25T11:03:40.408Z,1010.5
2016-09-25T11:04:40.391Z,1010.53
2016-09-25T11:05:40.376Z,1010.5
2016-09-25T11:06:40.359Z,1010.5
2016-09-25T11:07:40.346Z,1010.53
2016-09-25T11:08:40.327Z,1010.51
2016-09-25T11:09:40.311Z,1010.49
2016-09-25T11:10:40.295Z,1010.49
2016-09-25T11:11:40.276Z,1010.44
2016-09-25T11:12:40.265Z,1010.41
2016-09-25T11:13:40.245Z,1010.42
2016-09-25T11:14:40.230Z,1010.45
2016-09-25T11:15:40.212Z,1010.43
2016-09-25T11:16:40.193Z,1010.4
2016-09-25T11:17:40.182Z,1010.38
2016-09-25T11:18:40.163Z,1010.38
2016-09-25T11:19:40.149Z,1010.41
2016-09-25T11:20:40.135Z,1010.4
2016-09-25T11:21:40.116Z,1010.4
2016-09-25T11:22:40.101Z,1010.37
2016-09-25T11:23:40.084Z,1010.37
2016-09-25T11:24:40.066Z,1010.32
2016-09-25T11:25:40.048Z,1010.36
2016-09-25T11:26:40.033Z,1010.34
2016-09-25T11:27:40.018Z,1010.4
2016-09-25T11:28:40.005Z,1010.35
2016-09-25T11:29:39.985Z,1010.32
2016-09-25T11:30:39.972Z,1010.26
2016-09-25T11:31:39.949Z,1010.26
2016-09-25T11:32:39.937Z,1010.23
2016-09-25T11:33:39.920Z,1010.26
2016-09-25T11:34:39.905Z,1010.24
2016-09-25T11:35:39.886Z,1010.27
2016-09-25T11:36:39.868Z,1010.23
2016-09-25T11:37:39.854Z,1010.22
2016-09-25T11:38:39.837Z,1010.19
2016-09-25T11:39:39.826Z,1010.18
2016-09-25T11:40:39.805Z,1010.2
2016-09-25T11:41:39.788Z,1010.14
2016-09-25T11:42:39.775Z,1010.12
2016-09-25T11:43:39.761Z,1010.24
2016-09-25T11:44:39.738Z,1010.15
2016-09-25T11:45:39.728Z,1010.15
2016-09-25T11:46:39.709Z,1010.15
2016-09-25T11:47:39.693Z,1010.14
2016-09-25T11:48:39.671Z,1010.1
2016-09-25T11:49:39.657Z,1010.07
2016-09-25T11:50:39.641Z,1010.11
2016-09-25T11:51:39.625Z,1010.06
2016-09-25T11:52:39.611Z,1010.14
2016-09-25T11:53:39.594Z,1010.09
2016-09-25T11:54:39.578Z,1010.07
2016-09-25T11:55:39.560Z,1010.08
2016-09-25T11:56:39.546Z,1010.13
2016-09-25T11:57:39.529Z,1010.06
2016-09-25T11:58:39.514Z,1010.04
2016-09-25T11:59:39.495Z,1009.99
2016-09-25T12:00:39.480Z,1010
2016-09-25T12:01:39.466Z,1010.03
2016-09-25T12:02:39.455Z,1010.01
2016-09-25T12:03:39.430Z,1010.03
2016-09-25T12:04:39.415Z,1010.02
2016-09-25T12:05:39.398Z,1009.99
2016-09-25T12:06:39.381Z,1009.97
2016-09-25T12:07:39.365Z,1009.98